sensor_id;sensor_type;location;lat;lon;timestamp;pressure;altitude;pressure_sealevel;temperature;humidity
63321;BME280;49449;48.800;9.534;2023-07-31T00:02:26;98617.22;;;16.52;39.76
63321;BME280;49449;48.800;9.534;2023-07-31T00:04:54;98616.94;;;16.54;39.79
63321;BME280;49449;48.800;9.534;2023-07-31T00:07:21;98618.56;;;16.50;39.98
63321;BME280;49449;48.800;9.534;2023-07-31T00:09:49;98616.94;;;16.48;40.13
63321;BME280;49449;48.800;9.534;2023-07-31T00:12:17;98610.00;;;16.42;40.00
63321;BME280;49449;48.800;9.534;2023-07-31T00:14:45;98613.47;;;16.43;39.98
63321;BME280;49449;48.800;9.534;2023-07-31T00:17:13;98612.41;;;16.34;40.06
63321;BME280;49449;48.800;9.534;2023-07-31T00:19:42;98610.47;;;16.19;40.53
63321;BME280;49449;48.800;9.534;2023-07-31T00:22:12;98608.91;;;16.18;40.66
63321;BME280;49449;48.800;9.534;2023-07-31T00:24:40;98601.94;;;16.17;40.39
63321;BME280;49449;48.800;9.534;2023-07-31T00:27:08;98599.53;;;16.10;40.66
63321;BME280;49449;48.800;9.534;2023-07-31T00:29:36;98604.06;;;16.09;40.74
63321;BME280;49449;48.800;9.534;2023-07-31T00:32:04;98604.59;;;16.12;41.12
63321;BME280;49449;48.800;9.534;2023-07-31T00:34:32;98607.53;;;16.15;40.84
63321;BME280;49449;48.800;9.534;2023-07-31T00:37:01;98610.50;;;16.14;40.97
63321;BME280;49449;48.800;9.534;2023-07-31T00:39:29;98603.53;;;16.13;41.08
63321;BME280;49449;48.800;9.534;2023-07-31T00:41:57;98601.94;;;16.12;41.03
63321;BME280;49449;48.800;9.534;2023-07-31T00:44:25;98600.09;;;16.12;40.93
63321;BME280;49449;48.800;9.534;2023-07-31T00:46:53;98603.81;;;16.11;40.84
63321;BME280;49449;48.800;9.534;2023-07-31T00:49:22;98601.66;;;16.08;41.17
63321;BME280;49449;48.800;9.534;2023-07-31T00:51:50;98601.59;;;16.03;41.11
63321;BME280;49449;48.800;9.534;2023-07-31T00:54:19;98604.28;;;16.03;40.99
63321;BME280;49449;48.800;9.534;2023-07-31T00:56:47;98601.59;;;16.03;40.88
63321;BME280;49449;48.800;9.534;2023-07-31T00:59:15;98595.75;;;16.01;40.96
63321;BME280;49449;48.800;9.534;2023-07-31T01:01:45;98597.63;;;16.00;40.99
63321;BME280;49449;48.800;9.534;2023-07-31T01:04:13;98601.63;;;15.98;41.36
63321;BME280;49449;48.800;9.534;2023-07-31T01:06:47;98603.97;;;15.94;41.29
63321;BME280;49449;48.800;9.534;2023-07-31T01:09:22;98600.00;;;15.91;41.07
63321;BME280;49449;48.800;9.534;2023-07-31T01:11:57;98603.97;;;15.89;41.06
63321;BME280;49449;48.800;9.534;2023-07-31T01:14:26;98599.94;;;15.81;41.18
63321;BME280;49449;48.800;9.534;2023-07-31T01:16:54;98607.16;;;15.86;41.29
63321;BME280;49449;48.800;9.534;2023-07-31T01:19:24;98609.28;;;15.79;41.24
63321;BME280;49449;48.800;9.534;2023-07-31T01:21:58;98620.41;;;15.70;41.37
63321;BME280;49449;48.800;9.534;2023-07-31T01:24:35;98604.97;;;15.72;41.38
63321;BME280;49449;48.800;9.534;2023-07-31T01:27:12;98603.66;;;15.75;41.17
63321;BME280;49449;48.800;9.534;2023-07-31T01:29:51;98598.06;;;15.77;41.04
63321;BME280;49449;48.800;9.534;2023-07-31T01:32:23;98594.59;;;15.76;41.26
63321;BME280;49449;48.800;9.534;2023-07-31T01:34:53;98595.09;;;15.63;41.49
63321;BME280;49449;48.800;9.534;2023-07-31T01:37:27;98587.88;;;15.58;41.61
63321;BME280;49449;48.800;9.534;2023-07-31T01:39:55;98587.56;;;15.49;41.50
63321;BME280;49449;48.800;9.534;2023-07-31T01:42:25;98585.69;;;15.50;41.91
63321;BME280;49449;48.800;9.534;2023-07-31T01:44:52;98582.72;;;15.46;41.77
63321;BME280;49449;48.800;9.534;2023-07-31T01:47:21;98570.50;;;15.45;42.04
63321;BME280;49449;48.800;9.534;2023-07-31T01:49:50;98578.22;;;15.42;42.09
63321;BME280;49449;48.800;9.534;2023-07-31T01:52:17;98569.72;;;15.45;41.91
63321;BME280;49449;48.800;9.534;2023-07-31T01:54:45;98573.69;;;15.47;42.09
63321;BME280;49449;48.800;9.534;2023-07-31T01:57:13;98568.13;;;15.49;41.62
63321;BME280;49449;48.800;9.534;2023-07-31T01:59:42;98574.78;;;15.51;41.77
63321;BME280;49449;48.800;9.534;2023-07-31T02:02:10;98565.47;;;15.49;42.10
63321;BME280;49449;48.800;9.534;2023-07-31T02:04:38;98567.63;;;15.52;41.79
63321;BME280;49449;48.800;9.534;2023-07-31T02:07:07;98570.25;;;15.47;42.13
63321;BME280;49449;48.800;9.534;2023-07-31T02:09:35;98570.28;;;15.52;41.94
63321;BME280;49449;48.800;9.534;2023-07-31T02:12:03;98563.59;;;15.49;41.58
63321;BME280;49449;48.800;9.534;2023-07-31T02:14:31;98570.00;;;15.48;42.05
63321;BME280;49449;48.800;9.534;2023-07-31T02:17:00;98559.59;;;15.47;41.98
63321;BME280;49449;48.800;9.534;2023-07-31T02:19:28;98558.25;;;15.44;41.82
63321;BME280;49449;48.800;9.534;2023-07-31T02:21:55;98557.69;;;15.37;42.11
63321;BME280;49449;48.800;9.534;2023-07-31T02:24:24;98542.22;;;15.34;41.94
63321;BME280;49449;48.800;9.534;2023-07-31T02:26:52;98543.53;;;15.31;42.03
63321;BME280;49449;48.800;9.534;2023-07-31T02:29:19;98542.22;;;15.34;41.85
63321;BME280;49449;48.800;9.534;2023-07-31T02:31:47;98530.25;;;15.37;41.76
63321;BME280;49449;48.800;9.534;2023-07-31T02:34:16;98523.88;;;15.38;42.15
63321;BME280;49449;48.800;9.534;2023-07-31T02:36:44;98522.53;;;15.35;41.81
63321;BME280;49449;48.800;9.534;2023-07-31T02:39:12;98529.97;;;15.33;41.93
63321;BME280;49449;48.800;9.534;2023-07-31T02:41:40;98539.00;;;15.32;41.94
63321;BME280;49449;48.800;9.534;2023-07-31T02:44:07;98539.00;;;15.32;41.99
63321;BME280;49449;48.800;9.534;2023-07-31T02:46:36;98539.50;;;15.24;41.91
63321;BME280;49449;48.800;9.534;2023-07-31T02:49:04;98535.75;;;15.25;41.93
63321;BME280;49449;48.800;9.534;2023-07-31T02:51:33;98533.88;;;15.25;42.02
63321;BME280;49449;48.800;9.534;2023-07-31T02:54:01;98535.75;;;15.25;42.16
63321;BME280;49449;48.800;9.534;2023-07-31T02:56:29;98527.72;;;15.14;41.81
63321;BME280;49449;48.800;9.534;2023-07-31T02:58:57;98524.00;;;15.15;41.94
63321;BME280;49449;48.800;9.534;2023-07-31T03:01:25;98516.31;;;15.19;42.03
63321;BME280;49449;48.800;9.534;2023-07-31T03:03:52;98512.59;;;15.20;41.77
63321;BME280;49449;48.800;9.534;2023-07-31T03:06:20;98511.78;;;15.20;42.11
63321;BME280;49449;48.800;9.534;2023-07-31T03:08:49;98508.03;;;15.15;41.82
63321;BME280;49449;48.800;9.534;2023-07-31T03:11:17;98505.38;;;15.15;41.82
63321;BME280;49449;48.800;9.534;2023-07-31T03:13:45;98506.69;;;15.13;41.96
63321;BME280;49449;48.800;9.534;2023-07-31T03:16:12;98505.34;;;15.10;41.89
63321;BME280;49449;48.800;9.534;2023-07-31T03:18:40;98501.06;;;15.09;42.00
63321;BME280;49449;48.800;9.534;2023-07-31T03:21:08;98506.69;;;15.08;42.03
63321;BME280;49449;48.800;9.534;2023-07-31T03:23:36;98509.06;;;15.04;41.92
63321;BME280;49449;48.800;9.534;2023-07-31T03:26:07;98506.41;;;15.04;41.97
63321;BME280;49449;48.800;9.534;2023-07-31T03:28:35;98510.06;;;14.98;42.13
63321;BME280;49449;48.800;9.534;2023-07-31T03:31:03;98501.28;;;14.98;42.10
63321;BME280;49449;48.800;9.534;2023-07-31T03:33:31;98515.09;;;14.94;42.43
63321;BME280;49449;48.800;9.534;2023-07-31T03:35:58;98519.34;;;14.90;42.35
63321;BME280;49449;48.800;9.534;2023-07-31T03:38:26;98513.50;;;14.93;42.24
63321;BME280;49449;48.800;9.534;2023-07-31T03:40:54;98529.19;;;14.95;41.99
63321;BME280;49449;48.800;9.534;2023-07-31T03:43:22;98517.97;;;14.88;42.39
63321;BME280;49449;48.800;9.534;2023-07-31T03:45:51;98515.31;;;14.88;42.13
63321;BME280;49449;48.800;9.534;2023-07-31T03:48:19;98513.66;;;14.76;42.21
63321;BME280;49449;48.800;9.534;2023-07-31T03:50:47;98518.94;;;14.71;42.64
63321;BME280;49449;48.800;9.534;2023-07-31T03:53:14;98524.00;;;14.73;42.42
63321;BME280;49449;48.800;9.534;2023-07-31T03:55:42;98520.56;;;14.77;42.62
63321;BME280;49449;48.800;9.534;2023-07-31T03:58:10;98513.94;;;14.80;42.25
63321;BME280;49449;48.800;9.534;2023-07-31T04:00:39;98524.09;;;14.83;42.49
63321;BME280;49449;48.800;9.534;2023-07-31T04:03:07;98525.38;;;14.81;42.50
63321;BME280;49449;48.800;9.534;2023-07-31T04:05:38;98512.88;;;14.81;42.18
63321;BME280;49449;48.800;9.534;2023-07-31T04:08:06;98517.13;;;14.77;42.44
63321;BME280;49449;48.800;9.534;2023-07-31T04:10:34;98517.13;;;14.77;42.55
63321;BME280;49449;48.800;9.534;2023-07-31T04:13:01;98517.94;;;14.83;42.35
63321;BME280;49449;48.800;9.534;2023-07-31T04:15:29;98515.50;;;14.71;42.75
63321;BME280;49449;48.800;9.534;2023-07-31T04:17:58;98522.16;;;14.73;42.53
63321;BME280;49449;48.800;9.534;2023-07-31T04:20:26;98531.47;;;14.76;42.68
63321;BME280;49449;48.800;9.534;2023-07-31T04:22:54;98533.34;;;14.81;42.42
63321;BME280;49449;48.800;9.534;2023-07-31T04:25:22;98538.69;;;14.81;42.73
63321;BME280;49449;48.800;9.534;2023-07-31T04:27:49;98518.75;;;14.83;42.40
63321;BME280;49449;48.800;9.534;2023-07-31T04:30:17;98523.47;;;14.71;42.74
63321;BME280;49449;48.800;9.534;2023-07-31T04:32:45;98514.16;;;14.73;42.83
63321;BME280;49449;48.800;9.534;2023-07-31T04:35:14;98513.63;;;14.71;42.79
63321;BME280;49449;48.800;9.534;2023-07-31T04:37:42;98504.09;;;14.81;42.82
63321;BME280;49449;48.800;9.534;2023-07-31T04:40:11;98497.00;;;14.91;42.76
63321;BME280;49449;48.800;9.534;2023-07-31T04:42:41;98501.03;;;14.99;42.64
63321;BME280;49449;48.800;9.534;2023-07-31T04:45:09;98494.91;;;14.99;42.47
63321;BME280;49449;48.800;9.534;2023-07-31T04:47:37;98499.50;;;15.08;42.53
63321;BME280;49449;48.800;9.534;2023-07-31T04:50:06;98498.19;;;15.16;42.46
63321;BME280;49449;48.800;9.534;2023-07-31T04:52:35;98491.84;;;15.22;42.18
63321;BME280;49449;48.800;9.534;2023-07-31T04:55:03;98506.22;;;15.26;42.03
63321;BME280;49449;48.800;9.534;2023-07-31T04:57:31;98507.59;;;15.34;42.29
63321;BME280;49449;48.800;9.534;2023-07-31T04:59:59;98500.75;;;15.43;41.76
63321;BME280;49449;48.800;9.534;2023-07-31T05:02:27;98507.16;;;15.47;41.69
63321;BME280;49449;48.800;9.534;2023-07-31T05:04:55;98508.75;;;15.53;41.47
63321;BME280;49449;48.800;9.534;2023-07-31T05:07:22;98512.78;;;15.56;41.50
63321;BME280;49449;48.800;9.534;2023-07-31T05:09:52;98498.13;;;15.59;41.77
63321;BME280;49449;48.800;9.534;2023-07-31T05:12:20;98494.69;;;15.63;41.52
63321;BME280;49449;48.800;9.534;2023-07-31T05:14:48;98492.59;;;15.76;41.44
63321;BME280;49449;48.800;9.534;2023-07-31T05:17:15;98490.47;;;15.78;41.40
63321;BME280;49449;48.800;9.534;2023-07-31T05:19:43;98495.53;;;15.79;41.68
63321;BME280;49449;48.800;9.534;2023-07-31T05:22:11;98486.47;;;15.80;41.88
63321;BME280;49449;48.800;9.534;2023-07-31T05:24:39;98489.16;;;15.85;41.75
63321;BME280;49449;48.800;9.534;2023-07-31T05:27:08;98491.53;;;15.92;41.67
63321;BME280;49449;48.800;9.534;2023-07-31T05:29:37;98489.72;;;15.98;41.82
63321;BME280;49449;48.800;9.534;2023-07-31T05:32:05;98492.09;;;16.04;41.92
63321;BME280;49449;48.800;9.534;2023-07-31T05:34:33;98488.16;;;16.07;41.85
63321;BME280;49449;48.800;9.534;2023-07-31T05:37:01;98489.47;;;16.09;41.94
63321;BME280;49449;48.800;9.534;2023-07-31T05:39:29;98486.03;;;16.09;42.03
63321;BME280;49449;48.800;9.534;2023-07-31T05:41:57;98482.84;;;16.12;41.89
63321;BME280;49449;48.800;9.534;2023-07-31T05:44:26;98489.50;;;16.20;41.43
63321;BME280;49449;48.800;9.534;2023-07-31T05:46:54;98496.94;;;16.07;41.96
63321;BME280;49449;48.800;9.534;2023-07-31T05:49:21;98502.81;;;16.15;41.64
63321;BME280;49449;48.800;9.534;2023-07-31T05:51:49;98491.63;;;16.23;41.89
63321;BME280;49449;48.800;9.534;2023-07-31T05:54:17;98493.22;;;16.29;41.57
63321;BME280;49449;48.800;9.534;2023-07-31T05:56:45;98491.91;;;16.37;41.71
63321;BME280;49449;48.800;9.534;2023-07-31T05:59:13;98496.94;;;16.48;41.54
63321;BME280;49449;48.800;9.534;2023-07-31T06:01:42;98501.22;;;16.60;41.49
63321;BME280;49449;48.800;9.534;2023-07-31T06:04:10;98490.50;;;16.75;41.29
63321;BME280;49449;48.800;9.534;2023-07-31T06:06:38;98480.69;;;16.86;40.94
63321;BME280;49449;48.800;9.534;2023-07-31T06:09:06;98484.13;;;16.97;41.02
63321;BME280;49449;48.800;9.534;2023-07-31T06:11:34;98475.28;;;17.07;40.62
63321;BME280;49449;48.800;9.534;2023-07-31T06:14:01;98472.31;;;17.13;40.42
63321;BME280;49449;48.800;9.534;2023-07-31T06:16:29;98478.94;;;17.21;39.94
63321;BME280;49449;48.800;9.534;2023-07-31T06:18:59;98461.84;;;17.27;39.91
63321;BME280;49449;48.800;9.534;2023-07-31T06:21:26;98473.31;;;17.33;39.23
63321;BME280;49449;48.800;9.534;2023-07-31T06:23:54;98464.16;;;17.44;39.27
63321;BME280;49449;48.800;9.534;2023-07-31T06:26:22;98475.66;;;17.55;39.26
63321;BME280;49449;48.800;9.534;2023-07-31T06:28:50;98479.03;;;17.71;38.36
63321;BME280;49449;48.800;9.534;2023-07-31T06:31:18;98473.00;;;17.94;38.13
63321;BME280;49449;48.800;9.534;2023-07-31T06:33:49;98468.09;;;18.07;37.58
63321;BME280;49449;48.800;9.534;2023-07-31T06:36:18;98469.88;;;18.16;37.18
63321;BME280;49449;48.800;9.534;2023-07-31T06:38:46;98470.09;;;18.30;37.31
63321;BME280;49449;48.800;9.534;2023-07-31T06:41:14;98472.63;;;18.46;36.19
63321;BME280;49449;48.800;9.534;2023-07-31T06:43:42;98478.88;;;18.65;36.52
63321;BME280;49449;48.800;9.534;2023-07-31T06:46:09;98480.31;;;18.82;34.93
63321;BME280;49449;48.800;9.534;2023-07-31T06:48:37;98471.50;;;18.81;34.24
63321;BME280;49449;48.800;9.534;2023-07-31T06:51:06;98479.16;;;18.64;34.47
63321;BME280;49449;48.800;9.534;2023-07-31T06:53:35;98481.47;;;18.41;35.15
63321;BME280;49449;48.800;9.534;2023-07-31T06:56:03;98478.34;;;18.63;34.15
63321;BME280;49449;48.800;9.534;2023-07-31T06:58:31;98480.16;;;18.44;34.27
63321;BME280;49449;48.800;9.534;2023-07-31T07:00:59;98476.88;;;18.52;34.13
63321;BME280;49449;48.800;9.534;2023-07-31T07:03:27;98471.16;;;18.59;34.28
63321;BME280;49449;48.800;9.534;2023-07-31T07:05:55;98472.97;;;18.68;34.38
63321;BME280;49449;48.800;9.534;2023-07-31T07:08:23;98477.41;;;18.78;34.92
63321;BME280;49449;48.800;9.534;2023-07-31T07:10:54;98479.75;;;18.85;34.39
63321;BME280;49449;48.800;9.534;2023-07-31T07:13:22;98476.88;;;19.05;34.09
63321;BME280;49449;48.800;9.534;2023-07-31T07:15:50;98468.16;;;19.19;34.11
63321;BME280;49449;48.800;9.534;2023-07-31T07:18:18;98468.91;;;19.43;34.07
63321;BME280;49449;48.800;9.534;2023-07-31T07:20:49;98474.47;;;19.71;34.00
63321;BME280;49449;48.800;9.534;2023-07-31T07:23:17;98473.19;;;19.69;33.73
63321;BME280;49449;48.800;9.534;2023-07-31T07:25:46;98468.28;;;19.52;33.03
63321;BME280;49449;48.800;9.534;2023-07-31T07:28:15;98460.34;;;19.65;34.00
63321;BME280;49449;48.800;9.534;2023-07-31T07:30:43;98468.06;;;19.48;33.09
63321;BME280;49449;48.800;9.534;2023-07-31T07:33:11;98458.75;;;19.64;34.13
63321;BME280;49449;48.800;9.534;2023-07-31T07:35:39;98457.63;;;19.46;33.54
63321;BME280;49449;48.800;9.534;2023-07-31T07:38:06;98450.84;;;19.73;33.17
63321;BME280;49449;48.800;9.534;2023-07-31T07:40:38;98457.28;;;19.91;33.05
63321;BME280;49449;48.800;9.534;2023-07-31T07:43:06;98453.03;;;19.90;33.25
63321;BME280;49449;48.800;9.534;2023-07-31T07:45:35;98451.88;;;19.77;32.76
63321;BME280;49449;48.800;9.534;2023-07-31T07:48:04;98451.34;;;19.56;33.66
63321;BME280;49449;48.800;9.534;2023-07-31T07:50:32;98449.00;;;19.74;34.03
63321;BME280;49449;48.800;9.534;2023-07-31T07:53:00;98451.81;;;19.63;33.17
63321;BME280;49449;48.800;9.534;2023-07-31T07:55:28;98446.50;;;19.58;33.63
63321;BME280;49449;48.800;9.534;2023-07-31T07:57:55;98450.81;;;19.54;33.63
63321;BME280;49449;48.800;9.534;2023-07-31T08:00:23;98447.00;;;19.60;33.48
63321;BME280;49449;48.800;9.534;2023-07-31T08:02:52;98446.97;;;19.65;32.79
63321;BME280;49449;48.800;9.534;2023-07-31T08:05:20;98448.53;;;19.66;33.04
63321;BME280;49449;48.800;9.534;2023-07-31T08:07:48;98441.88;;;20.02;33.39
63321;BME280;49449;48.800;9.534;2023-07-31T08:10:16;98449.94;;;20.16;33.30
63321;BME280;49449;48.800;9.534;2023-07-31T08:12:44;98432.25;;;19.63;32.73
63321;BME280;49449;48.800;9.534;2023-07-31T08:15:12;98440.97;;;20.07;33.10
63321;BME280;49449;48.800;9.534;2023-07-31T08:17:40;98445.09;;;20.18;32.73
63321;BME280;49449;48.800;9.534;2023-07-31T08:20:10;98436.94;;;20.09;32.06
63321;BME280;49449;48.800;9.534;2023-07-31T08:22:38;98424.44;;;20.18;31.87
63321;BME280;49449;48.800;9.534;2023-07-31T08:25:07;98427.25;;;19.75;31.82
63321;BME280;49449;48.800;9.534;2023-07-31T08:27:35;98435.72;;;20.15;31.50
63321;BME280;49449;48.800;9.534;2023-07-31T08:30:04;98436.78;;;20.00;31.56
63321;BME280;49449;48.800;9.534;2023-07-31T08:32:31;98434.44;;;20.13;31.27
63321;BME280;49449;48.800;9.534;2023-07-31T08:34:59;98431.34;;;20.05;31.61
63321;BME280;49449;48.800;9.534;2023-07-31T08:37:29;98436.34;;;20.45;31.80
63321;BME280;49449;48.800;9.534;2023-07-31T08:39:56;98425.16;;;20.71;31.00
63321;BME280;49449;48.800;9.534;2023-07-31T08:42:24;98417.28;;;20.74;31.30
63321;BME280;49449;48.800;9.534;2023-07-31T08:44:54;98407.56;;;20.92;30.94
63321;BME280;49449;48.800;9.534;2023-07-31T08:47:23;98410.44;;;21.10;31.40
63321;BME280;49449;48.800;9.534;2023-07-31T08:49:52;98398.34;;;21.35;30.79
63321;BME280;49449;48.800;9.534;2023-07-31T08:52:20;98399.03;;;21.41;30.79
63321;BME280;49449;48.800;9.534;2023-07-31T08:54:50;98393.03;;;21.58;30.25
63321;BME280;49449;48.800;9.534;2023-07-31T08:57:18;98395.75;;;21.80;29.76
63321;BME280;49449;48.800;9.534;2023-07-31T08:59:46;98390.56;;;21.84;29.09
63321;BME280;49449;48.800;9.534;2023-07-31T09:02:15;98399.03;;;21.77;29.37
63321;BME280;49449;48.800;9.534;2023-07-31T09:04:44;98405.88;;;21.83;29.44
63321;BME280;49449;48.800;9.534;2023-07-31T09:07:12;98394.13;;;22.02;29.29
63321;BME280;49449;48.800;9.534;2023-07-31T09:09:41;98403.00;;;22.02;28.46
63321;BME280;49449;48.800;9.534;2023-07-31T09:12:10;98402.75;;;21.90;28.23
63321;BME280;49449;48.800;9.534;2023-07-31T09:14:39;98397.31;;;21.81;28.96
63321;BME280;49449;48.800;9.534;2023-07-31T09:17:07;98387.94;;;22.01;29.31
63321;BME280;49449;48.800;9.534;2023-07-31T09:19:36;98378.19;;;22.28;28.59
63321;BME280;49449;48.800;9.534;2023-07-31T09:22:05;98383.88;;;22.26;28.16
63321;BME280;49449;48.800;9.534;2023-07-31T09:24:34;98376.63;;;22.36;28.76
63321;BME280;49449;48.800;9.534;2023-07-31T09:27:02;98379.72;;;22.60;28.40
63321;BME280;49449;48.800;9.534;2023-07-31T09:29:31;98386.00;;;22.47;28.19
63321;BME280;49449;48.800;9.534;2023-07-31T09:31:59;98384.19;;;22.74;28.34
63321;BME280;49449;48.800;9.534;2023-07-31T09:34:37;98388.38;;;22.80;27.83
63321;BME280;49449;48.800;9.534;2023-07-31T09:37:05;98380.81;;;22.59;27.25
63321;BME280;49449;48.800;9.534;2023-07-31T09:39:45;98380.28;;;22.80;28.58
63321;BME280;49449;48.800;9.534;2023-07-31T09:42:13;98375.41;;;22.91;28.41
63321;BME280;49449;48.800;9.534;2023-07-31T09:44:43;98380.34;;;22.26;28.23
63321;BME280;49449;48.800;9.534;2023-07-31T09:47:21;98372.97;;;22.09;27.18
63321;BME280;49449;48.800;9.534;2023-07-31T09:49:50;98375.13;;;21.76;28.31
63321;BME280;49449;48.800;9.534;2023-07-31T09:52:18;98357.56;;;22.01;28.55
63321;BME280;49449;48.800;9.534;2023-07-31T09:54:45;98354.06;;;21.91;28.24
63321;BME280;49449;48.800;9.534;2023-07-31T09:57:14;98351.75;;;22.07;28.40
63321;BME280;49449;48.800;9.534;2023-07-31T09:59:46;98343.34;;;22.00;28.16
63321;BME280;49449;48.800;9.534;2023-07-31T10:02:20;98337.75;;;21.65;28.18
63321;BME280;49449;48.800;9.534;2023-07-31T10:04:50;98348.47;;;21.43;28.57
63321;BME280;49449;48.800;9.534;2023-07-31T10:07:19;98344.03;;;21.83;28.76
63321;BME280;49449;48.800;9.534;2023-07-31T10:09:48;98332.63;;;22.09;28.49
63321;BME280;49449;48.800;9.534;2023-07-31T10:12:19;98321.34;;;22.21;28.62
63321;BME280;49449;48.800;9.534;2023-07-31T10:14:52;98320.53;;;21.98;28.47
63321;BME280;49449;48.800;9.534;2023-07-31T10:17:21;98329.72;;;21.97;27.69
63321;BME280;49449;48.800;9.534;2023-07-31T10:19:49;98320.59;;;21.75;28.90
63321;BME280;49449;48.800;9.534;2023-07-31T10:22:19;98315.03;;;22.03;28.75
63321;BME280;49449;48.800;9.534;2023-07-31T10:24:48;98316.88;;;22.16;28.88
63321;BME280;49449;48.800;9.534;2023-07-31T10:27:16;98320.41;;;22.03;28.19
63321;BME280;49449;48.800;9.534;2023-07-31T10:29:45;98315.31;;;21.92;28.42
63321;BME280;49449;48.800;9.534;2023-07-31T10:32:16;98318.59;;;21.89;29.12
63321;BME280;49449;48.800;9.534;2023-07-31T10:34:45;98317.22;;;22.01;29.06
63321;BME280;49449;48.800;9.534;2023-07-31T10:37:20;98319.72;;;22.20;28.74
63321;BME280;49449;48.800;9.534;2023-07-31T10:39:56;98326.13;;;22.10;28.74
63321;BME280;49449;48.800;9.534;2023-07-31T10:42:29;98306.97;;;21.71;28.81
63321;BME280;49449;48.800;9.534;2023-07-31T10:44:58;98300.66;;;22.07;29.17
63321;BME280;49449;48.800;9.534;2023-07-31T10:47:28;98289.88;;;22.30;29.33
63321;BME280;49449;48.800;9.534;2023-07-31T10:50:13;98288.41;;;22.24;28.61
63321;BME280;49449;48.800;9.534;2023-07-31T10:52:45;98281.16;;;22.33;28.38
63321;BME280;49449;48.800;9.534;2023-07-31T10:55:15;98285.88;;;22.27;28.58
63321;BME280;49449;48.800;9.534;2023-07-31T10:57:44;98308.16;;;21.88;28.26
63321;BME280;49449;48.800;9.534;2023-07-31T11:00:19;98294.50;;;22.07;29.00
63321;BME280;49449;48.800;9.534;2023-07-31T11:02:58;98289.88;;;22.30;28.36
63321;BME280;49449;48.800;9.534;2023-07-31T11:05:49;98290.19;;;22.37;28.36
63321;BME280;49449;48.800;9.534;2023-07-31T11:08:21;98287.06;;;22.44;28.28
63321;BME280;49449;48.800;9.534;2023-07-31T11:10:51;98287.06;;;22.44;29.00
63321;BME280;49449;48.800;9.534;2023-07-31T11:13:33;98291.47;;;22.48;28.73
63321;BME280;49449;48.800;9.534;2023-07-31T11:16:00;98282.47;;;22.53;28.15
63321;BME280;49449;48.800;9.534;2023-07-31T11:18:30;98284.22;;;22.49;28.15
63321;BME280;49449;48.800;9.534;2023-07-31T11:20:58;98265.03;;;22.50;28.14
63321;BME280;49449;48.800;9.534;2023-07-31T11:23:26;98276.13;;;22.40;28.49
63321;BME280;49449;48.800;9.534;2023-07-31T11:25:59;98277.94;;;22.22;28.60
63321;BME280;49449;48.800;9.534;2023-07-31T11:28:31;98271.25;;;22.51;28.58
63321;BME280;49449;48.800;9.534;2023-07-31T11:31:01;98265.88;;;22.60;27.15
63321;BME280;49449;48.800;9.534;2023-07-31T11:33:31;98264.34;;;22.76;27.62
63321;BME280;49449;48.800;9.534;2023-07-31T11:35:59;98266.56;;;22.83;28.02
63321;BME280;49449;48.800;9.534;2023-07-31T11:38:28;98262.06;;;22.69;27.92
63321;BME280;49449;48.800;9.534;2023-07-31T11:40:57;98264.25;;;22.50;27.91
63321;BME280;49449;48.800;9.534;2023-07-31T11:43:25;98262.38;;;22.59;28.00
63321;BME280;49449;48.800;9.534;2023-07-31T11:45:55;98265.75;;;21.85;28.53
63321;BME280;49449;48.800;9.534;2023-07-31T11:48:25;98264.25;;;21.70;28.38
63321;BME280;49449;48.800;9.534;2023-07-31T11:50:58;98266.47;;;22.08;28.38
63321;BME280;49449;48.800;9.534;2023-07-31T11:53:28;98263.31;;;21.74;28.59
63321;BME280;49449;48.800;9.534;2023-07-31T11:56:00;98253.69;;;21.51;28.74
63321;BME280;49449;48.800;9.534;2023-07-31T11:58:29;98251.59;;;21.70;29.22
63321;BME280;49449;48.800;9.534;2023-07-31T12:00:57;98260.72;;;21.92;28.51
63321;BME280;49449;48.800;9.534;2023-07-31T12:03:26;98247.81;;;22.11;28.36
63321;BME280;49449;48.800;9.534;2023-07-31T12:05:55;98244.56;;;22.23;28.39
63321;BME280;49449;48.800;9.534;2023-07-31T12:08:24;98241.72;;;22.20;28.23
63321;BME280;49449;48.800;9.534;2023-07-31T12:10:53;98234.25;;;22.17;28.88
63321;BME280;49449;48.800;9.534;2023-07-31T12:13:22;98231.47;;;21.99;28.42
63321;BME280;49449;48.800;9.534;2023-07-31T12:15:54;98232.53;;;21.81;28.71
63321;BME280;49449;48.800;9.534;2023-07-31T12:18:25;98229.78;;;22.03;28.94
63321;BME280;49449;48.800;9.534;2023-07-31T12:20:56;98223.19;;;22.18;28.55
63321;BME280;49449;48.800;9.534;2023-07-31T12:23:26;98212.97;;;21.98;29.14
63321;BME280;49449;48.800;9.534;2023-07-31T12:26:02;98205.06;;;21.92;29.12
63321;BME280;49449;48.800;9.534;2023-07-31T12:28:32;98210.81;;;22.08;29.64
63321;BME280;49449;48.800;9.534;2023-07-31T12:31:02;98205.34;;;21.82;29.15
63321;BME280;49449;48.800;9.534;2023-07-31T12:33:34;98207.78;;;21.61;29.31
63321;BME280;49449;48.800;9.534;2023-07-31T12:36:05;98209.03;;;21.64;29.44
63321;BME280;49449;48.800;9.534;2023-07-31T12:38:34;98203.72;;;21.81;29.40
63321;BME280;49449;48.800;9.534;2023-07-31T12:41:02;98196.03;;;21.97;29.44
63321;BME280;49449;48.800;9.534;2023-07-31T12:43:30;98184.84;;;22.04;28.98
63321;BME280;49449;48.800;9.534;2023-07-31T12:45:58;98187.56;;;22.12;29.13
63321;BME280;49449;48.800;9.534;2023-07-31T12:48:25;98186.31;;;22.19;29.20
63321;BME280;49449;48.800;9.534;2023-07-31T12:50:53;98184.38;;;22.10;29.08
63321;BME280;49449;48.800;9.534;2023-07-31T12:53:22;98174.69;;;22.01;29.29
63321;BME280;49449;48.800;9.534;2023-07-31T12:55:50;98166.63;;;22.01;29.81
63321;BME280;49449;48.800;9.534;2023-07-31T12:58:18;98169.13;;;21.88;29.58
63321;BME280;49449;48.800;9.534;2023-07-31T13:00:46;98164.88;;;21.96;29.77
63321;BME280;49449;48.800;9.534;2023-07-31T13:03:13;98155.41;;;22.07;29.41
63321;BME280;49449;48.800;9.534;2023-07-31T13:05:42;98157.84;;;22.18;29.88
63321;BME280;49449;48.800;9.534;2023-07-31T13:08:10;98153.56;;;22.17;29.30
63321;BME280;49449;48.800;9.534;2023-07-31T13:10:39;98153.66;;;22.11;29.69